Time;durP1;ratioP1;P1;durP2;ratioP2;P2;SDS_P1;SDS_P2;PMS_P1;PMS_P2;Temp;Humidity;BMP_temperature;BMP_pressure;BME280_temperature;BME280_humidity;BME280_pressure;Samples;Min_cycle;Max_cycle;Signal;HPM_P1;HPM_P2
2022/08/24 00:00:09;;;;;;;405.33;360.70;;;;;;;22.80;85.97;99210.97;347131;28;3263;-77
2022/08/24 00:00:20;;;;;;;403.35;358.65;;;;;;;22.79;86.08;99219.13;348357;28;1492;-77
2022/08/24 00:00:33;;;;;;;402.23;357.75;;;;;;;22.74;86.04;99214.19;348870;28;1438;-77
2022/08/24 00:00:43;;;;;;;402.27;358.00;;;;;;;22.73;86.21;99214.34;347967;28;1325;-77
2022/08/24 00:00:54;;;;;;;400.70;356.50;;;;;;;22.70;86.56;99210.16;343437;28;1113;-77
2022/08/24 00:01:05;;;;;;;401.00;356.87;;;;;;;22.70;86.50;99219.97;345905;28;1212;-77
2022/08/24 00:01:15;;;;;;;405.70;361.30;;;;;;;22.67;86.79;99209.59;345083;28;1051;-77
2022/08/24 00:01:26;;;;;;;407.63;363.27;;;;;;;22.68;86.45;99217.47;349021;28;824;-77
2022/08/24 00:01:37;;;;;;;403.88;359.27;;;;;;;22.68;87.00;99213.94;345034;28;1353;-77
2022/08/24 00:01:47;;;;;;;402.70;358.10;;;;;;;22.68;86.55;99219.28;345672;28;880;-77
2022/08/24 00:01:58;;;;;;;401.73;357.40;;;;;;;22.66;86.79;99219.44;346354;28;939;-77
2022/08/24 00:02:08;;;;;;;398.40;354.52;;;;;;;22.65;86.30;99209.75;342040;28;1524;-77
2022/08/24 00:02:18;;;;;;;397.90;353.93;;;;;;;22.67;86.55;99215.78;343683;28;1645;-77
2022/08/24 00:02:29;;;;;;;397.55;353.52;;;;;;;22.66;86.39;99211.44;344946;28;859;-77
2022/08/24 00:02:39;;;;;;;402.30;358.10;;;;;;;22.66;86.67;99214.09;348753;28;1681;-77
2022/08/24 00:02:50;;;;;;;398.30;354.43;;;;;;;22.66;86.33;99214.09;344766;28;1183;-77
2022/08/24 00:03:01;;;;;;;397.33;351.83;;;;;;;22.66;86.55;99211.44;344682;28;1392;-77
2022/08/24 00:03:11;;;;;;;396.42;349.90;;;;;;;22.67;86.11;99207.78;340781;28;1841;-77
2022/08/24 00:03:22;;;;;;;400.38;355.60;;;;;;;22.65;86.20;99212.41;341602;28;1222;-77
2022/08/24 00:03:33;;;;;;;406.70;362.20;;;;;;;22.65;86.14;99211.59;343373;28;1277;-77
2022/08/24 00:03:44;;;;;;;407.15;362.45;;;;;;;22.64;86.48;99213.41;343475;28;1316;-77
2022/08/24 00:03:56;;;;;;;404.65;360.10;;;;;;;22.67;86.16;99207.78;339518;29;1308;-77
2022/08/24 00:04:06;;;;;;;402.52;358.30;;;;;;;22.67;86.43;99205.09;338255;29;921;-77
2022/08/24 00:04:17;;;;;;;404.90;360.58;;;;;;;22.68;86.42;99217.47;343437;28;1219;-76
2022/08/24 00:04:27;;;;;;;411.03;366.40;;;;;;;22.69;86.22;99204.97;342152;28;853;-76
2022/08/24 00:04:38;;;;;;;407.75;363.20;;;;;;;22.70;85.81;99207.47;339532;29;973;-76
2022/08/24 00:04:49;;;;;;;402.60;358.33;;;;;;;22.70;86.12;99206.63;340562;28;1422;-76
2022/08/24 00:05:00;;;;;;;398.38;354.35;;;;;;;22.69;86.04;99208.47;339360;28;1372;-77
2022/08/24 00:05:10;;;;;;;402.57;358.30;;;;;;;22.68;86.10;99206.78;340715;29;1230;-77
2022/08/24 00:05:21;;;;;;;408.38;363.83;;;;;;;22.69;86.08;99207.63;339297;28;1257;-77
2022/08/24 00:05:31;;;;;;;408.57;363.93;;;;;;;22.69;86.13;99208.47;339530;29;1733;-77
2022/08/24 00:05:41;;;;;;;407.37;363.13;;;;;;;22.69;86.04;99203.13;339547;29;1064;-77
2022/08/24 00:05:52;;;;;;;405.07;360.90;;;;;;;22.69;85.71;99213.81;339460;29;1905;-77
2022/08/24 00:06:03;;;;;;;400.90;356.77;;;;;;;22.69;85.87;99208.47;336923;29;1003;-77
2022/08/24 00:06:18;;;;;;;398.38;352.52;;;;;;;22.68;85.98;99201.44;335723;29;1076;-77
2022/08/24 00:06:29;;;;;;;397.50;351.25;;;;;;;22.69;85.97;99202.28;333950;29;1586;-77
2022/08/24 00:06:39;;;;;;;403.80;359.57;;;;;;;22.67;86.06;99199.78;339179;29;1286;-77
2022/08/24 00:06:49;;;;;;;406.83;362.45;;;;;;;22.70;86.00;99207.47;339848;28;1424;-77
2022/08/24 00:07:01;;;;;;;409.67;365.03;;;;;;;22.68;85.83;99197.94;340325;29;1863;-76
2022/08/24 00:07:11;;;;;;;406.70;362.10;;;;;;;22.70;86.04;99204.81;337017;29;866;-76
2022/08/24 00:07:22;;;;;;;402.92;358.30;;;;;;;22.71;85.88;99210.97;333487;29;1892;-76
2022/08/24 00:07:33;;;;;;;404.15;359.55;;;;;;;22.69;86.05;99204.97;330365;29;2154;-76
2022/08/24 00:07:43;;;;;;;404.03;359.53;;;;;;;22.69;85.89;99205.78;328212;30;777;-76
2022/08/24 00:07:54;;;;;;;398.42;354.02;;;;;;;22.70;85.58;99209.31;328486;30;2235;-77
2022/08/24 00:08:04;;;;;;;396.20;347.73;;;;;;;22.69;85.54;99203.13;328551;30;1806;-77
2022/08/24 00:08:15;;;;;;;396.88;349.92;;;;;;;22.69;85.87;99205.78;329789;29;918;-77
2022/08/24 00:08:25;;;;;;;396.67;352.23;;;;;;;22.71;85.43;99198.47;329462;30;1026;-76
2022/08/24 00:08:36;;;;;;;399.35;355.38;;;;;;;22.70;85.64;99209.31;328456;29;1257;-76
2022/08/24 00:08:48;;;;;;;400.98;356.98;;;;;;;22.68;85.75;99206.78;327325;29;1855;-76
2022/08/24 00:08:58;;;;;;;399.98;355.75;;;;;;;22.67;85.49;99205.09;328165;30;1599;-76
2022/08/24 00:09:08;;;;;;;401.85;357.40;;;;;;;22.68;85.53;99201.44;321077;30;3358;-76
2022/08/24 00:09:19;;;;;;;407.23;362.50;;;;;;;22.67;85.96;99199.78;322330;30;2508;-76
2022/08/24 00:09:30;;;;;;;413.45;368.40;;;;;;;22.67;85.95;99201.59;321999;30;1786;-76
2022/08/24 00:09:40;;;;;;;414.02;369.02;;;;;;;22.66;85.89;99205.25;324500;30;3526;-76
2022/08/24 00:09:51;;;;;;;411.07;365.93;;;;;;;22.65;85.72;99204.41;319379;30;2731;-76
2022/08/24 00:10:03;;;;;;;404.60;359.90;;;;;;;22.65;85.79;99201.75;315979;30;2866;-76
2022/08/24 00:10:13;;;;;;;404.27;359.60;;;;;;;22.63;85.65;99198.38;314150;31;1883;-76
2022/08/24 00:10:25;;;;;;;404.43;359.87;;;;;;;22.65;85.61;99207.09;316962;30;1412;-76
2022/08/24 00:10:37;;;;;;;403.92;359.50;;;;;;;22.64;85.73;99208.06;319300;30;1287;-79
2022/08/24 00:10:47;;;;;;;402.70;358.30;;;;;;;22.66;85.85;99208.75;319079;30;2304;-79
2022/08/24 00:10:58;;;;;;;402.43;358.00;;;;;;;22.67;85.77;99213.09;315510;31;1249;-79
2022/08/24 00:11:09;;;;;;;405.27;360.70;;;;;;;22.64;85.59;99210.75;318411;30;2729;-79
2022/08/24 00:11:19;;;;;;;404.83;360.33;;;;;;;22.65;85.44;99212.41;317356;30;2818;-79
2022/08/24 00:11:30;;;;;;;399.47;355.43;;;;;;;22.65;85.49;99217.75;313931;31;2621;-79
2022/08/24 00:11:40;;;;;;;398.55;354.58;;;;;;;22.66;85.61;99214.09;305648;32;1230;-79
2022/08/24 00:11:51;;;;;;;392.27;344.90;;;;;;;22.68;85.50;99212.13;308922;31;3411;-79
2022/08/24 00:12:02;;;;;;;395.67;346.90;;;;;;;22.68;85.22;99211.28;311711;31;3624;-79
2022/08/24 00:12:12;;;;;;;397.55;350.00;;;;;;;22.65;85.01;99212.41;312675;31;1012;-79
2022/08/24 00:12:23;;;;;;;399.23;346.10;;;;;;;22.67;85.39;99210.44;314793;31;3098;-79
2022/08/24 00:12:33;;;;;;;398.87;350.90;;;;;;;22.67;85.05;99213.09;314152;31;1674;-79
2022/08/24 00:12:44;;;;;;;398.33;351.15;;;;;;;22.67;85.69;99210.44;310835;31;1248;-79
2022/08/24 00:12:54;;;;;;;405.87;361.47;;;;;;;22.67;85.17;99212.28;309350;31;2349;-79
2022/08/24 00:13:05;;;;;;;405.42;361.02;;;;;;;22.68;85.38;99211.28;309204;31;3204;-79
2022/08/24 00:13:15;;;;;;;404.87;360.67;;;;;;;22.67;85.28;99210.44;309059;31;3930;-79
2022/08/24 00:13:26;;;;;;;401.85;357.73;;;;;;;22.67;85.02;99220.28;306479;32;1354;-79
2022/08/24 00:13:37;;;;;;;408.43;363.97;;;;;;;22.67;85.36;99209.59;306726;31;4139;-79
2022/08/24 00:13:48;;;;;;;410.08;365.52;;;;;;;22.65;85.56;99220.41;306842;31;5292;-79
2022/08/24 00:13:58;;;;;;;408.57;364.30;;;;;;;22.63;85.64;99214.41;306492;32;971;-79
2022/08/24 00:14:10;;;;;;;404.10;360.13;;;;;;;22.63;85.24;99219.72;303542;32;4629;-79
2022/08/24 00:14:20;;;;;;;407.85;363.55;;;;;;;22.63;85.52;99221.56;304802;32;4422;-79
2022/08/24 00:14:31;;;;;;;407.15;362.45;;;;;;;22.63;85.24;99217.06;306708;32;3746;-78
2022/08/24 00:14:41;;;;;;;409.07;364.23;;;;;;;22.61;85.58;99221.72;304370;32;1205;-78
2022/08/24 00:14:52;;;;;;;406.75;362.17;;;;;;;22.61;85.52;99218.19;304394;32;2481;-78
2022/08/24 00:15:04;;;;;;;409.15;364.55;;;;;;;22.58;85.34;99222.84;302399;32;3337;-79
2022/08/24 00:15:15;;;;;;;413.33;368.80;;;;;;;22.59;85.35;99218.34;297884;33;1440;-79
2022/08/24 00:15:25;;;;;;;411.88;367.63;;;;;;;22.58;85.67;99219.34;296189;33;1241;-79
2022/08/24 00:15:36;;;;;;;412.00;367.60;;;;;;;22.58;85.82;99219.34;293729;33;5627;-79
2022/08/24 00:15:46;;;;;;;414.53;369.87;;;;;;;22.57;85.86;99221.16;292626;33;5608;-79
2022/08/24 00:15:56;;;;;;;412.60;367.75;;;;;;;22.56;86.03;99221.31;293521;33;970;-79
2022/08/24 00:16:07;;;;;;;407.97;363.33;;;;;;;22.58;86.11;99222.00;289301;33;6189;-79
2022/08/24 00:16:18;;;;;;;403.20;358.83;;;;;;;22.57;86.15;99225.66;288084;33;6237;-79
2022/08/24 00:16:28;;;;;;;401.47;357.23;;;;;;;22.58;85.94;99222.84;291481;34;1595;-79
2022/08/24 00:16:39;;;;;;;399.87;355.53;;;;;;;22.60;86.07;99225.38;289086;34;5713;-79
2022/08/24 00:16:49;;;;;;;397.13;352.67;;;;;;;22.58;85.79;99222.00;288842;33;4978;-79
2022/08/24 00:17:00;;;;;;;397.90;353.20;;;;;;;22.60;86.04;99224.53;290331;34;1378;-79
2022/08/24 00:17:11;;;;;;;403.45;359.25;;;;;;;22.58;86.18;99219.34;285763;34;1331;-79
2022/08/24 00:17:21;;;;;;;412.75;368.20;;;;;;;22.57;86.11;99226.50;285166;34;4595;-79
2022/08/24 00:17:33;;;;;;;419.67;375.07;;;;;;;22.59;86.29;99229.03;284706;34;6301;-79
2022/08/24 00:17:43;;;;;;;416.15;371.55;;;;;;;22.60;86.02;99220.03;285137;34;1008;-79
2022/08/24 00:17:54;;;;;;;409.07;364.53;;;;;;;22.60;86.08;99228.03;283284;34;7249;-79
2022/08/24 00:18:04;;;;;;;410.20;365.58;;;;;;;22.61;85.90;99221.72;282232;34;8460;-79
2022/08/24 00:18:15;;;;;;;417.03;372.13;;;;;;;22.61;85.61;99226.19;279621;35;9204;-80
2022/08/24 00:18:25;;;;;;;417.52;372.75;;;;;;;22.62;85.89;99238.56;275391;35;2043;-80
2022/08/24 00:18:36;;;;;;;413.07;368.53;;;;;;;22.61;85.87;99227.03;275303;35;9250;-80
2022/08/24 00:18:47;;;;;;;408.98;364.23;;;;;;;22.57;85.74;99226.50;274953;35;8483;-80
2022/08/24 00:18:59;;;;;;;400.85;355.75;;;;;;;22.57;85.76;99223.84;275940;35;1285;-80
2022/08/24 00:21:14;;;;;;;395.70;341.51;;;;;;;22.53;86.09;99218.94;2502251;27;20284;-79
2022/08/24 00:21:25;;;;;;;417.70;373.45;;;;;;;22.53;85.78;99221.59;352350;28;904;-79
2022/08/24 00:21:36;;;;;;;411.02;366.98;;;;;;;22.54;85.73;99231.28;349513;28;1414;-79
2022/08/24 00:21:46;;;;;;;410.58;366.45;;;;;;;22.54;85.92;99217.94;347513;28;1427;-79
2022/08/24 00:21:57;;;;;;;413.37;368.83;;;;;;;22.52;86.03;99219.97;347599;28;1204;-79
2022/08/24 00:22:08;;;;;;;417.10;372.43;;;;;;;22.53;86.02;99218.94;347734;28;1380;-78
2022/08/24 00:22:19;;;;;;;419.38;374.30;;;;;;;22.51;85.88;99215.59;345999;28;1314;-78
2022/08/24 00:22:30;;;;;;;416.35;371.58;;;;;;;22.52;85.77;99222.63;349014;28;1497;-78
2022/08/24 00:22:40;;;;;;;417.90;373.03;;;;;;;22.51;85.76;99210.28;347546;28;1274;-78
2022/08/24 00:22:51;;;;;;;420.17;375.20;;;;;;;22.49;85.77;99217.59;347928;28;1394;-78
2022/08/24 00:23:02;;;;;;;418.75;373.60;;;;;;;22.50;86.03;99214.78;347448;28;960;-78
2022/08/24 00:23:12;;;;;;;416.13;371.05;;;;;;;22.51;85.67;99210.28;347885;28;820;-79
2022/08/24 00:23:23;;;;;;;416.33;371.53;;;;;;;22.51;85.87;99213.78;347020;28;1385;-79
2022/08/24 00:23:34;;;;;;;418.02;373.30;;;;;;;22.51;85.54;99208.44;347275;28;1244;-79
2022/08/24 00:23:45;;;;;;;423.23;378.48;;;;;;;22.51;85.85;99210.28;346397;28;1310;-79
2022/08/24 00:23:55;;;;;;;418.88;374.25;;;;;;;22.53;85.51;99202.94;347365;28;1249;-79
2022/08/24 00:24:06;;;;;;;419.40;374.87;;;;;;;22.55;85.80;99206.28;347687;28;1176;-79
2022/08/24 00:24:16;;;;;;;418.98;374.55;;;;;;;22.55;85.58;99206.28;346347;28;1223;-79
2022/08/24 00:24:27;;;;;;;420.83;376.33;;;;;;;22.54;85.74;99204.63;349128;28;1349;-79
2022/08/24 00:24:37;;;;;;;420.75;376.13;;;;;;;22.54;85.62;99205.44;347709;28;891;-79
2022/08/24 00:24:47;;;;;;;421.63;376.90;;;;;;;22.55;85.89;99208.97;347485;28;1286;-78
2022/08/24 00:24:58;;;;;;;415.57;371.00;;;;;;;22.57;85.70;99201.66;348846;28;1085;-77
2022/08/24 00:25:09;;;;;;;414.45;370.00;;;;;;;22.57;85.56;99209.66;348972;28;948;-77
2022/08/24 00:25:20;;;;;;;410.23;366.10;;;;;;;22.57;85.50;99205.16;345807;28;879;-77
2022/08/24 00:25:30;;;;;;;416.33;372.00;;;;;;;22.59;85.37;99210.34;346242;28;890;-77
2022/08/24 00:25:41;;;;;;;414.20;369.88;;;;;;;22.58;85.69;99206.00;347129;28;1326;-78
2022/08/24 00:25:51;;;;;;;420.73;376.03;;;;;;;22.58;85.57;99200.66;345405;28;984;-77
2022/08/24 00:26:03;;;;;;;415.58;371.00;;;;;;;22.56;85.86;99203.47;347549;28;1227;-77
2022/08/24 00:26:14;;;;;;;416.75;372.13;;;;;;;22.58;85.75;99203.31;343601;28;892;-77
2022/08/24 00:26:24;;;;;;;415.85;371.25;;;;;;;22.57;85.24;99204.31;344937;28;860;-77
2022/08/24 00:26:34;;;;;;;412.13;367.70;;;;;;;22.58;85.44;99211.34;346663;28;1217;-77
2022/08/24 00:26:45;;;;;;;409.27;365.10;;;;;;;22.56;85.42;99203.47;347606;28;1368;-77
2022/08/24 00:26:55;;;;;;;406.37;362.40;;;;;;;22.58;85.49;99211.34;347943;28;1129;-76
2022/08/24 00:27:06;;;;;;;409.30;365.15;;;;;;;22.57;85.52;99207.00;346182;28;1216;-76
2022/08/24 00:27:16;;;;;;;405.87;361.80;;;;;;;22.55;85.65;99209.81;346190;28;1396;-76
2022/08/24 00:27:27;;;;;;;408.80;364.83;;;;;;;22.54;85.49;99217.94;347623;28;2517;-76
2022/08/24 00:27:37;;;;;;;412.13;367.97;;;;;;;22.54;85.80;99207.28;345646;28;3196;-76
2022/08/24 00:27:48;;;;;;;418.70;373.95;;;;;;;22.54;85.84;99209.94;343307;28;1244;-78
2022/08/24 00:27:58;;;;;;;423.03;377.93;;;;;;;22.52;85.58;99210.13;340989;28;1749;-79
2022/08/24 00:28:08;;;;;;;418.77;373.70;;;;;;;22.51;85.67;99210.28;343296;28;1352;-77
2022/08/24 00:28:19;;;;;;;409.37;364.80;;;;;;;22.53;86.08;99213.59;343448;28;1282;-76
2022/08/24 00:28:29;;;;;;;407.50;362.67;;;;;;;22.54;85.88;99209.94;343573;28;840;-76
2022/08/24 00:28:40;;;;;;;411.38;366.52;;;;;;;22.54;85.70;99215.28;344755;28;1253;-77
2022/08/24 00:28:51;;;;;;;411.55;366.88;;;;;;;22.54;85.61;99212.63;344784;28;950;-77
2022/08/24 00:29:02;;;;;;;410.02;365.70;;;;;;;22.52;85.82;99212.78;343599;28;932;-77
2022/08/24 00:29:13;;;;;;;409.03;364.73;;;;;;;22.52;85.83;99217.28;341901;28;1424;-77
2022/08/24 00:29:23;;;;;;;416.88;372.20;;;;;;;22.50;85.89;99205.94;338057;29;1417;-78
2022/08/24 00:29:34;;;;;;;413.57;369.00;;;;;;;22.52;85.70;99211.97;336589;29;1348;-77
2022/08/24 00:29:44;;;;;;;407.60;363.27;;;;;;;22.51;85.77;99215.59;335866;29;901;-77
2022/08/24 00:29:55;;;;;;;406.63;362.53;;;;;;;22.49;86.13;99212.25;335103;29;1592;-78
2022/08/24 00:30:10;;;;;;;398.95;354.90;;;;;;;22.50;86.09;99213.94;336657;29;1458;-78
2022/08/24 00:30:20;;;;;;;397.17;351.02;;;;;;;22.51;86.10;99211.13;335200;29;991;-77
2022/08/24 00:30:31;;;;;;;404.23;360.00;;;;;;;22.51;85.57;99215.59;335701;29;953;-76
2022/08/24 00:30:42;;;;;;;413.73;369.05;;;;;;;22.49;86.01;99212.25;335674;29;935;-76
2022/08/24 00:30:52;;;;;;;418.98;374.20;;;;;;;22.49;85.70;99214.91;336647;29;1469;-76
2022/08/24 00:31:03;;;;;;;416.80;372.00;;;;;;;22.50;86.05;99208.59;334025;29;1539;-76
2022/08/24 00:31:14;;;;;;;414.55;369.90;;;;;;;22.49;85.69;99212.25;333143;29;932;-76
2022/08/24 00:31:24;;;;;;;416.70;371.95;;;;;;;22.50;85.44;99220.09;338507;29;1554;-77
2022/08/24 00:31:35;;;;;;;412.80;367.97;;;;;;;22.49;85.50;99206.91;336521;29;1885;-76
2022/08/24 00:31:46;;;;;;;411.20;366.42;;;;;;;22.49;85.48;99217.59;333043;29;1446;-77
2022/08/24 00:31:56;;;;;;;409.95;365.30;;;;;;;22.47;85.54;99207.06;332746;29;2141;-77
2022/08/24 00:32:07;;;;;;;415.97;371.47;;;;;;;22.47;85.65;99211.56;327910;30;2167;-77
2022/08/24 00:32:17;;;;;;;412.05;367.67;;;;;;;22.44;85.85;99210.03;327530;30;1187;-77
2022/08/24 00:32:28;;;;;;;409.47;365.23;;;;;;;22.45;85.70;99216.19;331411;29;1635;-76
2022/08/24 00:32:39;;;;;;;414.73;370.15;;;;;;;22.43;85.40;99207.50;331466;29;1357;-76
2022/08/24 00:32:49;;;;;;;411.53;367.23;;;;;;;22.42;85.42;99213.81;331553;29;1265;-76
2022/08/24 00:33:00;;;;;;;411.87;367.67;;;;;;;22.43;85.45;99219.00;330025;29;1505;-76
2022/08/24 00:33:10;;;;;;;409.75;365.65;;;;;;;22.42;85.69;99221.81;332653;29;1429;-77
2022/08/24 00:33:20;;;;;;;418.70;374.17;;;;;;;22.42;85.89;99212.00;328566;29;2230;-76
2022/08/24 00:33:32;;;;;;;415.10;370.55;;;;;;;22.44;85.64;99217.19;325875;30;1421;-76
2022/08/24 00:33:42;;;;;;;408.63;364.40;;;;;;;22.45;85.93;99218.88;326786;29;2289;-76
2022/08/24 00:33:53;;;;;;;406.33;362.07;;;;;;;22.44;85.86;99225.19;329338;29;2245;-76
2022/08/24 00:34:03;;;;;;;408.23;363.90;;;;;;;22.44;85.79;99219.84;328066;30;2506;-76
2022/08/24 00:34:16;;;;;;;408.58;364.13;;;;;;;22.42;85.59;99220.00;325093;30;1353;-76
2022/08/24 00:34:28;;;;;;;404.67;360.27;;;;;;;22.42;85.80;99217.34;326322;30;2628;-76
2022/08/24 00:34:39;;;;;;;410.38;366.02;;;;;;;22.43;85.72;99218.19;324215;30;1877;-75
2022/08/24 00:34:49;;;;;;;408.40;364.33;;;;;;;22.42;85.67;99221.81;321723;30;1257;-76
2022/08/24 00:34:59;;;;;;;413.08;368.73;;;;;;;22.40;85.97;99215.81;324774;30;1260;-76
2022/08/24 00:35:10;;;;;;;416.33;371.60;;;;;;;22.40;85.87;99221.13;322731;30;1762;-76
2022/08/24 00:35:21;;;;;;;414.35;369.55;;;;;;;22.42;85.98;99219.16;318875;30;2122;-76
2022/08/24 00:35:32;;;;;;;406.95;362.65;;;;;;;22.42;86.12;99213.81;318772;31;732;-76
2022/08/24 00:35:43;;;;;;;407.47;363.30;;;;;;;22.42;85.88;99225.34;316712;31;3147;-76
2022/08/24 00:35:53;;;;;;;410.05;365.75;;;;;;;22.40;86.03;99213.97;317925;30;3077;-76
2022/08/24 00:36:04;;;;;;;415.23;370.65;;;;;;;22.42;86.18;99221.81;319282;30;2975;-76
2022/08/24 00:36:14;;;;;;;418.70;373.87;;;;;;;22.40;86.29;99218.47;317289;31;1248;-76
2022/08/24 00:36:25;;;;;;;419.45;374.48;;;;;;;22.41;86.11;99221.00;315983;31;3405;-76
2022/08/24 00:36:35;;;;;;;420.00;375.00;;;;;;;22.40;86.42;99221.97;315699;31;3239;-76
2022/08/24 00:36:46;;;;;;;417.88;372.90;;;;;;;22.42;85.74;99227.16;314114;31;2886;-76
2022/08/24 00:36:57;;;;;;;420.55;375.70;;;;;;;22.41;86.11;99223.66;317672;31;2634;-76
2022/08/24 00:37:07;;;;;;;422.60;377.53;;;;;;;22.42;86.19;99219.16;313330;31;2647;-76
2022/08/24 00:37:17;;;;;;;425.52;380.45;;;;;;;22.40;85.88;99215.81;310242;31;1347;-76
2022/08/24 00:37:28;;;;;;;425.17;380.20;;;;;;;22.40;86.13;99223.81;315013;31;1013;-77
2022/08/24 00:37:39;;;;;;;424.27;379.45;;;;;;;22.42;86.24;99216.50;316837;31;4926;-77
2022/08/24 00:37:50;;;;;;;422.40;377.58;;;;;;;22.42;85.92;99219.16;316242;31;4533;-77
2022/08/24 00:38:00;;;;;;;422.52;377.67;;;;;;;22.44;85.58;99225.19;312744;31;1299;-76
2022/08/24 00:38:11;;;;;;;422.43;377.67;;;;;;;22.44;85.77;99219.84;309844;31;4365;-76
2022/08/24 00:38:21;;;;;;;417.25;372.70;;;;;;;22.44;85.54;99219.84;308466;31;4368;-76
2022/08/24 00:38:34;;;;;;;416.30;371.87;;;;;;;22.45;85.75;99221.53;310312;31;1170;-76
2022/08/24 00:38:44;;;;;;;415.42;371.00;;;;;;;22.46;85.45;99212.53;304437;32;817;-76
2022/08/24 00:38:55;;;;;;;414.17;369.60;;;;;;;22.44;85.54;99211.84;307822;31;4272;-76
2022/08/24 00:39:06;;;;;;;413.15;368.67;;;;;;;22.43;85.97;99211.00;305423;32;3612;-76
2022/08/24 00:39:17;;;;;;;415.48;370.95;;;;;;;22.44;85.49;99220.69;299912;32;3055;-76
2022/08/24 00:39:27;;;;;;;413.80;369.15;;;;;;;22.44;86.01;99211.84;297727;32;3977;-77
2022/08/24 00:39:38;;;;;;;417.63;372.73;;;;;;;22.44;85.64;99217.19;295717;33;4364;-76
2022/08/24 00:39:48;;;;;;;417.58;372.60;;;;;;;22.44;85.54;99214.53;292736;33;7089;-76
2022/08/24 00:39:59;;;;;;;425.60;380.53;;;;;;;22.44;85.61;99219.84;293392;33;1570;-76
2022/08/24 00:40:15;;;;;;;418.63;373.80;;;;;;;22.45;85.62;99218.88;293471;33;6670;-76
2022/08/24 00:40:32;;;;;;;414.55;369.85;;;;;;;22.44;85.44;99214.53;296727;33;6174;-78
2022/08/24 00:40:45;;;;;;;423.75;378.88;;;;;;;22.42;85.32;99211.16;291298;34;809;-78
2022/08/24 00:40:55;;;;;;;416.90;372.15;;;;;;;22.43;85.39;99215.50;289370;33;5621;-77
2022/08/24 00:41:05;;;;;;;410.17;365.83;;;;;;;22.42;85.56;99209.34;289663;33;6157;-77
2022/08/24 00:41:16;;;;;;;409.17;364.85;;;;;;;22.42;85.50;99213.81;290210;34;1314;-77
2022/08/24 00:41:27;;;;;;;408.07;363.67;;;;;;;22.43;85.46;99210.16;289153;33;4842;-77
2022/08/24 00:41:42;;;;;;;407.95;363.35;;;;;;;22.40;85.65;99207.81;288072;33;4988;-77
2022/08/24 00:41:53;;;;;;;407.50;363.10;;;;;;;22.34;85.86;99211.06;286951;34;6208;-77
2022/08/24 00:42:03;;;;;;;412.50;368.00;;;;;;;22.35;85.57;99215.41;284853;34;10214;-77
2022/08/24 00:42:13;;;;;;;422.20;377.43;;;;;;;22.36;85.74;99217.06;282783;35;1231;-77
2022/08/24 00:42:24;;;;;;;424.10;379.05;;;;;;;22.36;85.69;99209.06;283293;34;8946;-77
2022/08/24 00:42:34;;;;;;;425.20;380.17;;;;;;;22.36;85.81;99219.75;284634;34;9452;-77
2022/08/24 00:42:45;;;;;;;423.88;378.63;;;;;;;22.35;86.03;99207.41;282971;35;1235;-77
2022/08/24 00:42:58;;;;;;;429.48;384.08;;;;;;;22.37;86.05;99213.44;281815;34;8895;-77
2022/08/24 00:45:11;;;;;;;385.89;327.20;;;;;;;22.37;85.82;99210.75;2503634;27;20507;-78
2022/08/24 00:45:23;;;;;;;415.00;370.73;;;;;;;22.37;85.49;99213.44;353341;28;864;-78
2022/08/24 00:45:42;;;;;;;415.38;371.20;;;;;;;22.38;85.80;99220.44;351792;28;1329;-78
2022/08/24 00:45:53;;;;;;;422.45;377.60;;;;;;;22.37;85.81;99219.59;349369;28;2777;-78
2022/08/24 00:46:15;;;;;;;422.40;377.53;;;;;;;22.36;85.92;99217.06;350363;28;1534;-79
2022/08/24 00:46:31;;;;;;;409.92;365.75;;;;;;;22.36;85.86;99215.25;348896;28;1385;-78
2022/08/24 00:46:47;;;;;;;418.20;373.73;;;;;;;22.37;85.62;99216.09;347604;28;1238;-78
2022/08/24 00:47:02;;;;;;;422.63;378.10;;;;;;;22.36;85.82;99212.59;348812;28;1395;-78
2022/08/24 00:47:18;;;;;;;419.05;374.58;;;;;;;22.36;85.56;99212.59;347494;28;1307;-78
2022/08/24 00:47:32;;;;;;;413.52;369.00;;;;;;;22.36;86.05;99212.59;343414;28;1478;-78
2022/08/24 00:47:55;;;;;;;419.25;374.48;;;;;;;22.34;85.91;99208.38;343517;28;1321;-78
2022/08/24 00:48:07;;;;;;;420.77;376.40;;;;;;;22.32;85.91;99218.34;343562;28;1384;-78
2022/08/24 00:48:21;;;;;;;421.00;376.50;;;;;;;22.32;85.70;99210.34;342044;28;1319;-78
2022/08/24 00:48:32;;;;;;;423.08;378.50;;;;;;;22.32;85.98;99210.34;343884;28;941;-77
2022/08/24 00:48:45;;;;;;;428.23;383.55;;;;;;;22.32;85.85;99215.69;342149;28;1444;-78
2022/08/24 00:49:05;;;;;;;432.40;387.58;;;;;;;22.33;85.81;99212.03;339588;29;1383;-78
2022/08/24 00:49:40;;;;;;;422.88;378.17;;;;;;;22.34;85.86;99219.06;340187;28;1052;-77
2022/08/24 00:49:55;;;;;;;415.60;371.17;;;;;;;22.33;85.63;99222.72;340888;29;847;-77
2022/08/24 00:50:08;;;;;;;416.63;372.15;;;;;;;22.34;85.73;99219.88;342139;28;1281;-77
2022/08/24 00:50:47;;;;;;;420.98;376.30;;;;;;;22.34;85.48;99219.06;340773;29;1424;-77
2022/08/24 00:51:07;;;;;;;416.67;372.35;;;;;;;22.35;85.82;99218.91;337818;29;1074;-78
2022/08/24 00:51:21;;;;;;;416.30;371.88;;;;;;;22.34;85.50;99219.88;341286;28;941;-78
2022/08/24 00:51:46;;;;;;;418.08;373.52;;;;;;;22.34;85.76;99219.06;341178;28;1298;-78
2022/08/24 00:52:14;;;;;;;410.25;365.92;;;;;;;22.31;85.63;99216.69;339551;29;925;-78
2022/08/24 00:52:28;;;;;;;409.42;365.25;;;;;;;22.30;85.79;99223.00;339478;29;845;-78
2022/08/24 00:52:43;;;;;;;414.50;370.17;;;;;;;22.31;85.63;99219.34;336882;29;1314;-77
2022/08/24 00:52:56;;;;;;;419.17;374.58;;;;;;;22.29;85.72;99216.81;337848;29;1277;-76
2022/08/24 00:53:26;;;;;;;422.95;378.05;;;;;;;22.31;85.55;99220.19;340032;29;1384;-76
2022/08/24 00:53:40;;;;;;;421.63;376.85;;;;;;;22.33;85.77;99220.03;340321;29;1509;-77
2022/08/24 00:53:54;;;;;;;415.35;370.92;;;;;;;22.31;85.79;99219.34;336778;29;1672;-77
2022/08/24 00:54:07;;;;;;;414.42;370.10;;;;;;;22.31;85.71;99220.19;335346;29;1362;-77
2022/08/24 00:54:18;;;;;;;417.98;373.50;;;;;;;22.31;85.27;99217.50;333621;29;1022;-77
2022/08/24 00:54:29;;;;;;;419.40;374.87;;;;;;;22.32;85.31;99223.69;333184;29;858;-77
2022/08/24 00:54:42;;;;;;;417.25;372.60;;;;;;;22.31;85.65;99220.19;330819;29;883;-77
2022/08/24 00:55:06;;;;;;;422.65;377.70;;;;;;;22.31;85.72;99214.84;331626;29;1413;-77
2022/08/24 00:55:33;;;;;;;422.75;377.85;;;;;;;22.33;85.38;99222.72;332538;29;1851;-77
2022/08/24 00:55:48;;;;;;;417.42;372.88;;;;;;;22.33;85.42;99218.22;323505;30;1299;-77
2022/08/24 00:56:02;;;;;;;417.50;372.80;;;;;;;22.34;85.32;99219.06;316250;30;2321;-77
2022/08/24 00:56:16;;;;;;;422.45;377.70;;;;;;;22.30;85.54;99212.34;321118;30;854;-79
2022/08/24 00:56:31;;;;;;;422.55;377.75;;;;;;;22.30;85.48;99212.34;325866;30;1320;-79
2022/08/24 00:56:45;;;;;;;422.52;377.80;;;;;;;22.31;85.19;99219.34;327034;30;820;-79
2022/08/24 00:56:57;;;;;;;421.63;376.90;;;;;;;22.34;85.50;99219.06;323991;30;1401;-78
2022/08/24 00:57:09;;;;;;;420.58;375.65;;;;;;;22.31;85.90;99217.50;319380;30;1740;-78
2022/08/24 00:57:21;;;;;;;422.55;377.42;;;;;;;22.29;85.73;99218.66;319333;30;3726;-77
2022/08/24 00:57:34;;;;;;;425.17;380.00;;;;;;;22.31;85.46;99219.34;318507;30;2513;-78
2022/08/24 00:57:47;;;;;;;419.23;374.35;;;;;;;22.29;85.54;99226.66;317321;30;2582;-78
2022/08/24 00:58:02;;;;;;;420.50;375.92;;;;;;;22.28;86.03;99219.63;323266;30;1327;-78
2022/08/24 00:58:16;;;;;;;425.70;380.63;;;;;;;22.30;85.99;99217.66;324469;30;1361;-78
2022/08/24 00:58:37;;;;;;;425.15;380.10;;;;;;;22.30;85.76;99213.16;318550;31;1412;-78
2022/08/24 00:58:51;;;;;;;409.08;364.70;;;;;;;22.31;85.84;99219.34;316013;31;1356;-78